createdAt,value
2022-08-22T00:01:54.464Z,7.95
2022-08-22T00:02:53.533Z,11.20
2022-08-22T00:04:34.313Z,8.07
2022-08-22T00:07:07.522Z,7.88
2022-08-22T00:09:48.378Z,10.68
2022-08-22T00:12:21.962Z,8.50
2022-08-22T00:14:58.408Z,8.88
2022-08-22T00:17:35.234Z,9.00
2022-08-22T00:20:11.951Z,9.50
2022-08-22T00:22:46.327Z,8.50
2022-08-22T00:25:37.241Z,9.95
2022-08-22T00:28:10.368Z,10.70
2022-08-22T00:30:53.508Z,9.32
2022-08-22T00:33:27.646Z,10.10
2022-08-22T00:36:07.656Z,9.10
2022-08-22T00:38:41.408Z,10.77
2022-08-22T00:41:24.536Z,12.48
2022-08-22T00:44:13.766Z,14.88
2022-08-22T00:47:10.770Z,14.93
2022-08-22T00:50:01.119Z,16.20
2022-08-22T00:53:10.668Z,17.88
2022-08-22T00:55:53.565Z,20.20
2022-08-22T00:58:45.467Z,19.30
2022-08-22T01:01:16.987Z,18.30
2022-08-22T01:03:58.452Z,16.63
2022-08-22T01:09:17.470Z,12.63
2022-08-22T01:12:15.910Z,11.15
2022-08-22T01:14:49.155Z,12.68
2022-08-22T01:17:41.107Z,13.10
2022-08-22T01:20:42.140Z,10.82
2022-08-22T01:23:46.686Z,10.90
2022-08-22T01:26:56.037Z,11.38
2022-08-22T01:29:56.724Z,10.63
2022-08-22T01:32:57.042Z,11.63
2022-08-22T01:35:51.947Z,12.25
2022-08-22T01:38:49.354Z,11.35
2022-08-22T01:41:41.789Z,10.73
2022-08-22T01:44:23.318Z,10.40
2022-08-22T01:46:58.645Z,10.80
2022-08-22T01:49:36.605Z,10.60
2022-08-22T01:52:11.586Z,8.65
2022-08-22T01:54:49.146Z,9.60
2022-08-22T01:57:18.605Z,9.50
2022-08-22T01:59:49.900Z,9.15
2022-08-22T02:02:40.975Z,9.57
2022-08-22T02:05:19.500Z,10.38
2022-08-22T02:07:57.613Z,9.32
2022-08-22T02:10:42.041Z,9.88
2022-08-22T02:13:29.811Z,10.45
2022-08-22T02:16:09.036Z,9.82
2022-08-22T02:18:50.460Z,9.05
2022-08-22T02:21:26.058Z,10.18
2022-08-22T02:24:03.051Z,10.55
2022-08-22T02:26:44.261Z,9.63
2022-08-22T02:29:16.448Z,9.45
2022-08-22T02:31:48.856Z,9.43
2022-08-22T02:34:38.757Z,9.13
2022-08-22T02:37:14.132Z,9.18
2022-08-22T02:39:50.721Z,10.73
2022-08-22T02:42:26.714Z,9.80
2022-08-22T02:45:06.042Z,11.25
2022-08-22T02:47:39.929Z,9.13
2022-08-22T02:50:17.571Z,9.50
2022-08-22T02:52:57.569Z,9.85
2022-08-22T02:55:46.327Z,9.40
2022-08-22T02:58:23.471Z,8.38
2022-08-22T03:01:12.521Z,8.60
2022-08-22T03:03:43.572Z,7.85
2022-08-22T03:06:30.949Z,9.73
2022-08-22T03:09:07.439Z,9.32
2022-08-22T03:11:40.849Z,8.65
2022-08-22T03:14:16.007Z,8.52
2022-08-22T03:16:53.488Z,9.23
2022-08-22T03:19:30.078Z,7.70
2022-08-22T03:22:03.228Z,7.95
2022-08-22T03:24:39.252Z,8.02
2022-08-22T03:27:23.235Z,8.30
2022-08-22T03:30:06.414Z,8.30
2022-08-22T03:32:50.377Z,8.23
2022-08-22T03:35:31.519Z,7.13
2022-08-22T03:38:13.326Z,7.00
2022-08-22T03:40:55.884Z,8.88
2022-08-22T03:43:59.083Z,7.75
2022-08-22T03:46:45.679Z,7.80
2022-08-22T03:49:55.655Z,8.35
2022-08-22T03:53:18.544Z,7.00
2022-08-22T03:56:20.105Z,8.07
2022-08-22T03:59:16.733Z,7.77
2022-08-22T04:02:33.414Z,9.07
2022-08-22T04:05:14.478Z,6.40
2022-08-22T04:08:16.118Z,7.10
2022-08-22T04:11:02.557Z,6.57
2022-08-22T04:14:25.489Z,6.57
2022-08-22T04:17:36.696Z,7.90
2022-08-22T04:20:19.873Z,7.00
2022-08-22T04:23:29.213Z,7.28
2022-08-22T04:26:01.911Z,8.45
2022-08-22T04:28:43.457Z,7.35
2022-08-22T04:31:14.083Z,8.10
2022-08-22T04:33:47.826Z,6.63
2022-08-22T04:36:23.707Z,7.75
2022-08-22T04:38:58.122Z,9.10
2022-08-22T04:41:35.802Z,7.40
2022-08-22T04:44:08.205Z,7.65
2022-08-22T04:46:43.673Z,7.93
2022-08-22T04:49:17.056Z,7.53
2022-08-22T04:51:50.801Z,7.22
2022-08-22T04:54:38.551Z,7.55
2022-08-22T04:57:16.634Z,7.28
2022-08-22T04:59:45.600Z,7.05
2022-08-22T05:02:22.802Z,7.10
2022-08-22T05:04:57.370Z,6.28
2022-08-22T05:07:35.909Z,6.65
2022-08-22T05:10:12.395Z,7.57
2022-08-22T05:12:44.927Z,6.60
2022-08-22T05:17:56.104Z,6.75
2022-08-22T05:20:28.309Z,6.57
2022-08-22T05:23:00.345Z,6.95
2022-08-22T05:25:33.833Z,6.85
2022-08-22T05:28:10.368Z,6.65
2022-08-22T05:30:39.960Z,6.25
2022-08-22T05:33:18.113Z,7.28
2022-08-22T05:35:54.555Z,6.22
2022-08-22T05:38:30.709Z,6.88
2022-08-22T05:41:05.549Z,8.07
2022-08-22T05:43:38.495Z,7.00
2022-08-22T05:46:09.986Z,6.35
2022-08-22T05:48:44.143Z,7.18
2022-08-22T05:51:19.352Z,6.70
2022-08-22T05:53:52.212Z,5.50
2022-08-22T05:56:32.076Z,6.22
2022-08-22T05:59:08.525Z,6.22
2022-08-22T06:01:44.423Z,5.82
2022-08-22T06:04:26.725Z,6.57
2022-08-22T06:06:58.184Z,5.80
2022-08-22T06:09:34.838Z,5.93
2022-08-22T06:12:12.603Z,6.70
2022-08-22T06:14:52.723Z,8.02
2022-08-22T06:17:26.094Z,7.13
2022-08-22T06:19:55.429Z,6.50
2022-08-22T06:22:27.012Z,7.25
2022-08-22T06:24:59.589Z,6.72
2022-08-22T06:27:31.093Z,5.13
2022-08-22T06:30:03.049Z,6.35
2022-08-22T06:32:59.082Z,6.25
2022-08-22T06:35:31.536Z,6.35
2022-08-22T06:38:01.124Z,6.25
2022-08-22T06:40:30.015Z,5.05
2022-08-22T06:42:58.761Z,6.40
2022-08-22T06:45:30.950Z,6.35
2022-08-22T06:48:15.029Z,6.20
2022-08-22T06:50:48.032Z,5.30
2022-08-22T06:53:18.514Z,6.28
2022-08-22T06:55:49.454Z,6.97
2022-08-22T06:58:20.983Z,5.45
2022-08-22T07:01:11.287Z,6.53
2022-08-22T07:03:44.830Z,5.75
2022-08-22T07:06:18.436Z,5.10
2022-08-22T07:08:52.563Z,5.90
2022-08-22T07:11:26.003Z,5.65
2022-08-22T07:13:58.333Z,5.28
2022-08-22T07:16:31.919Z,6.25
2022-08-22T07:18:59.947Z,6.45
2022-08-22T07:21:43.111Z,5.93
2022-08-22T07:24:16.986Z,5.22
2022-08-22T07:27:06.917Z,5.38
2022-08-22T07:29:45.783Z,5.78
2022-08-22T07:32:19.223Z,5.22
2022-08-22T07:35:06.723Z,5.47
2022-08-22T07:37:48.343Z,5.72
2022-08-22T07:40:23.795Z,5.43
2022-08-22T07:42:58.888Z,6.82
2022-08-22T07:45:35.064Z,5.65
2022-08-22T07:48:25.520Z,5.75
2022-08-22T07:51:07.519Z,5.40
2022-08-22T07:53:42.157Z,5.85
2022-08-22T07:56:15.018Z,6.28
2022-08-22T07:58:45.786Z,5.88
2022-08-22T08:01:18.035Z,6.78
2022-08-22T08:03:53.461Z,6.43
2022-08-22T08:06:22.646Z,5.93
2022-08-22T08:08:53.212Z,6.25
2022-08-22T08:11:23.487Z,6.38
2022-08-22T08:13:54.552Z,6.72
2022-08-22T08:18:55.768Z,6.78
2022-08-22T08:21:29.577Z,5.25
2022-08-22T08:24:01.389Z,5.45
2022-08-22T08:26:32.992Z,5.00
2022-08-22T08:29:02.852Z,6.85
2022-08-22T08:31:33.059Z,5.10
2022-08-22T08:34:04.746Z,5.83
2022-08-22T08:36:42.285Z,5.32
2022-08-22T08:39:19.368Z,5.53
2022-08-22T08:42:07.249Z,6.18
2022-08-22T08:45:17.114Z,5.85
2022-08-22T08:48:16.304Z,5.80
2022-08-22T08:50:58.183Z,5.20
2022-08-22T08:53:51.090Z,6.15
2022-08-22T08:56:29.521Z,5.45
2022-08-22T08:59:10.292Z,6.30
2022-08-22T09:02:06.165Z,6.15
2022-08-22T09:04:57.294Z,6.28
2022-08-22T09:07:52.706Z,6.10
2022-08-22T09:10:41.000Z,5.90
2022-08-22T09:13:43.795Z,5.77
2022-08-22T09:16:30.296Z,4.68
2022-08-22T09:19:31.459Z,6.00
2022-08-22T09:22:50.153Z,5.50
2022-08-22T09:25:29.655Z,7.00
2022-08-22T09:28:16.312Z,6.03
2022-08-22T09:31:02.840Z,5.25
2022-08-22T09:33:53.103Z,6.20
2022-08-22T09:36:25.234Z,6.78
2022-08-22T09:38:56.882Z,6.55
2022-08-22T09:41:35.608Z,6.70
2022-08-22T09:44:14.474Z,5.90
2022-08-22T09:46:55.203Z,6.57
2022-08-22T09:49:32.763Z,6.10
2022-08-22T09:52:15.595Z,6.65
2022-08-22T09:55:02.397Z,6.07
2022-08-22T09:57:38.645Z,7.38
2022-08-22T10:00:22.824Z,7.05
2022-08-22T10:03:06.332Z,6.38
2022-08-22T10:19:15.103Z,6.50
2022-08-22T10:22:12.988Z,7.47
2022-08-22T10:24:50.673Z,7.13
2022-08-22T10:27:28.968Z,6.25
2022-08-22T10:30:06.955Z,6.97
2022-08-22T10:32:42.867Z,6.53
2022-08-22T10:38:13.506Z,5.88
2022-08-22T10:40:47.872Z,6.82
2022-08-22T10:43:21.128Z,7.05
2022-08-22T10:46:03.777Z,7.65
2022-08-22T10:48:46.857Z,6.68
2022-08-22T10:51:49.437Z,6.10
2022-08-22T10:54:42.948Z,5.75
2022-08-22T10:57:43.973Z,6.97
2022-08-22T11:00:16.930Z,6.05
2022-08-22T11:02:55.840Z,7.53
2022-08-22T11:05:32.927Z,6.47
2022-08-22T11:08:27.111Z,6.90
2022-08-22T11:11:08.750Z,6.72
2022-08-22T11:13:43.656Z,7.00
2022-08-22T11:16:36.812Z,7.25
2022-08-22T11:19:22.633Z,6.25
2022-08-22T11:22:01.557Z,7.47
2022-08-22T11:25:06.712Z,6.72
2022-08-22T11:27:54.159Z,5.53
2022-08-22T11:30:31.803Z,7.53
2022-08-22T11:33:32.512Z,6.65
2022-08-22T11:36:31.088Z,6.25
2022-08-22T11:39:18.554Z,7.55
2022-08-22T11:41:56.611Z,7.55
2022-08-22T11:44:32.315Z,7.05
2022-08-22T11:47:08.918Z,7.15
2022-08-22T11:49:50.957Z,6.60
2022-08-22T11:52:34.178Z,7.13
2022-08-22T11:55:32.149Z,6.43
2022-08-22T11:58:16.900Z,7.28
2022-08-22T12:00:54.526Z,7.25
2022-08-22T12:03:55.630Z,6.82
2022-08-22T12:06:39.341Z,5.93
2022-08-22T12:09:20.780Z,6.75
2022-08-22T12:12:01.773Z,6.70
2022-08-22T12:14:42.889Z,6.40
2022-08-22T12:17:55.156Z,6.75
2022-08-22T12:20:21.202Z,6.72
2022-08-22T12:23:09.801Z,5.97
2022-08-22T12:25:55.635Z,6.90
2022-08-22T12:28:32.346Z,6.18
2022-08-22T12:31:09.929Z,7.60
2022-08-22T12:34:03.010Z,6.15
2022-08-22T12:36:54.275Z,5.75
2022-08-22T12:39:41.125Z,6.72
2022-08-22T12:42:36.801Z,6.90
2022-08-22T12:45:20.775Z,6.70
2022-08-22T12:48:00.835Z,5.95
2022-08-22T12:50:42.219Z,7.30
2022-08-22T12:56:06.079Z,5.57
2022-08-22T12:58:57.747Z,6.90
2022-08-22T13:01:33.745Z,6.53
2022-08-22T13:04:05.523Z,6.20
2022-08-22T13:07:01.270Z,8.20
2022-08-22T13:09:34.139Z,6.75
2022-08-22T13:12:05.992Z,6.53
2022-08-22T13:14:35.046Z,6.35
2022-08-22T13:17:23.921Z,6.20
2022-08-22T13:20:01.403Z,5.35
2022-08-22T13:22:34.242Z,5.78
2022-08-22T13:25:06.231Z,6.03
2022-08-22T13:27:50.670Z,6.20
2022-08-22T13:30:22.743Z,5.82
2022-08-22T13:32:53.391Z,6.00
2022-08-22T13:35:24.625Z,5.68
2022-08-22T13:38:03.296Z,6.90
2022-08-22T13:40:33.256Z,5.93
2022-08-22T13:43:05.503Z,5.90
2022-08-22T13:45:36.312Z,5.95
2022-08-22T13:48:13.270Z,6.97
2022-08-22T13:51:09.946Z,5.70
2022-08-22T13:53:49.904Z,7.80
2022-08-22T13:56:34.907Z,7.25
2022-08-22T13:59:07.361Z,7.05
2022-08-22T14:01:48.286Z,7.15
2022-08-22T14:04:32.118Z,6.43
2022-08-22T14:07:24.044Z,6.75
2022-08-22T14:09:58.964Z,7.82
2022-08-22T14:12:50.891Z,7.20
2022-08-22T14:15:23.515Z,7.57
2022-08-22T14:17:56.274Z,7.05
2022-08-22T14:20:32.136Z,6.75
2022-08-22T14:23:05.163Z,7.20
2022-08-22T14:25:38.911Z,7.45
2022-08-22T14:28:11.014Z,7.85
2022-08-22T14:30:54.668Z,9.20
2022-08-22T14:33:32.295Z,8.38
2022-08-22T14:36:10.982Z,8.48
2022-08-22T14:38:46.187Z,7.20
2022-08-22T14:41:27.560Z,8.50
2022-08-22T14:46:30.744Z,8.50
2022-08-22T14:49:24.968Z,8.10
2022-08-22T14:52:00.086Z,8.90
2022-08-22T14:54:29.607Z,8.77
2022-08-22T14:57:02.324Z,9.68
2022-08-22T14:59:37.264Z,9.02
2022-08-22T15:02:09.998Z,7.97
2022-08-22T15:04:41.007Z,8.85
2022-08-22T15:07:12.577Z,11.57
2022-08-22T15:12:23.679Z,9.18
2022-08-22T15:14:56.078Z,9.95
2022-08-22T15:17:40.808Z,9.95
2022-08-22T15:20:27.725Z,9.80
2022-08-22T15:22:59.088Z,11.20
2022-08-22T15:25:30.552Z,9.73
2022-08-22T15:28:05.584Z,9.90
2022-08-22T15:30:37.708Z,10.13
2022-08-22T15:33:22.851Z,10.95
2022-08-22T15:35:52.446Z,10.55
2022-08-22T15:38:31.444Z,11.20
2022-08-22T15:41:37.258Z,10.60
2022-08-22T15:44:14.801Z,10.05
2022-08-22T15:47:24.216Z,10.77
2022-08-22T15:49:59.590Z,9.88
2022-08-22T15:52:30.736Z,9.57
2022-08-22T15:55:19.113Z,9.75
2022-08-22T15:57:59.956Z,9.27
2022-08-22T16:00:43.736Z,11.30
2022-08-22T16:03:24.464Z,8.35
2022-08-22T16:05:56.046Z,8.98
2022-08-22T16:08:28.440Z,9.60
2022-08-22T16:11:25.477Z,9.00
2022-08-22T16:14:21.812Z,9.35
2022-08-22T16:17:03.656Z,9.43
2022-08-22T16:19:32.450Z,11.05
2022-08-22T16:22:15.293Z,11.45
2022-08-22T16:25:06.791Z,10.57
2022-08-22T16:27:55.465Z,10.05
2022-08-22T16:30:38.301Z,10.40
2022-08-22T16:33:10.344Z,10.50
2022-08-22T16:36:22.766Z,11.95
2022-08-22T16:38:53.006Z,11.60
2022-08-22T16:41:40.356Z,11.25
2022-08-22T16:44:31.517Z,11.60
2022-08-22T16:49:54.469Z,12.30
2022-08-22T16:52:55.431Z,12.65
2022-08-22T16:58:40.222Z,13.10
2022-08-22T17:01:22.817Z,13.45
2022-08-22T17:04:00.118Z,11.80
2022-08-22T17:06:51.941Z,13.30
2022-08-22T17:09:48.467Z,12.13
2022-08-22T17:12:30.417Z,11.68
2022-08-22T17:15:14.171Z,12.63
2022-08-22T17:17:54.153Z,10.95
2022-08-22T17:20:29.505Z,12.95
2022-08-22T17:23:12.752Z,12.50
2022-08-22T17:25:55.231Z,11.90
2022-08-22T17:28:34.792Z,13.02
2022-08-22T17:31:10.037Z,12.13
2022-08-22T17:34:01.744Z,12.63
2022-08-22T17:36:42.073Z,13.15
2022-08-22T17:39:24.607Z,12.57
2022-08-22T17:42:00.449Z,13.52
2022-08-22T17:44:38.943Z,11.77
2022-08-22T17:47:12.872Z,14.07
2022-08-22T17:49:50.457Z,11.75
2022-08-22T17:52:25.538Z,13.23
2022-08-22T17:54:59.531Z,11.65
2022-08-22T17:57:31.153Z,12.95
2022-08-22T18:00:02.815Z,13.95
2022-08-22T18:02:36.084Z,12.60
2022-08-22T18:05:12.889Z,15.43
2022-08-22T18:08:00.759Z,14.05
2022-08-22T18:10:39.675Z,14.73
2022-08-22T18:13:13.328Z,13.85
2022-08-22T18:15:47.363Z,13.57
2022-08-22T18:18:30.338Z,13.95
2022-08-22T18:21:03.448Z,14.02
2022-08-22T18:23:40.178Z,13.38
2022-08-22T18:26:30.911Z,13.07
2022-08-22T18:29:05.695Z,10.73
2022-08-22T18:31:48.416Z,11.60
2022-08-22T18:34:30.096Z,10.93
2022-08-22T18:37:03.801Z,12.30
2022-08-22T18:39:40.792Z,10.75
2022-08-22T18:42:23.218Z,9.18
2022-08-22T18:44:50.915Z,8.73
2022-08-22T18:47:23.847Z,9.93
2022-08-22T18:49:54.755Z,9.95
2022-08-22T18:52:35.061Z,9.63
2022-08-22T18:55:26.869Z,10.18
2022-08-22T18:58:23.536Z,8.77
2022-08-22T19:01:03.460Z,9.90
2022-08-22T19:03:52.754Z,10.30
2022-08-22T19:06:44.364Z,9.15
2022-08-22T19:09:45.448Z,9.98
2022-08-22T19:12:31.612Z,9.65
2022-08-22T19:15:18.461Z,11.52
2022-08-22T19:18:03.571Z,11.40
2022-08-22T19:20:33.624Z,9.85
2022-08-22T19:23:34.163Z,10.68
2022-08-22T19:26:41.412Z,9.90
2022-08-22T19:29:42.009Z,10.13
2022-08-22T19:32:32.202Z,9.85
2022-08-22T19:35:18.498Z,9.88
2022-08-22T19:37:55.270Z,8.40
2022-08-22T19:40:48.969Z,9.52
2022-08-22T19:43:37.240Z,9.30
2022-08-22T19:46:08.535Z,8.63
2022-08-22T19:48:49.998Z,8.10
2022-08-22T19:51:27.693Z,9.98
2022-08-22T19:54:17.181Z,8.70
2022-08-22T19:57:01.042Z,9.88
2022-08-22T19:59:40.742Z,9.50
2022-08-22T20:02:30.560Z,10.63
2022-08-22T20:05:17.239Z,10.88
2022-08-22T20:07:58.250Z,11.02
2022-08-22T20:10:35.102Z,9.95
2022-08-22T20:13:07.712Z,9.45
2022-08-22T20:16:03.999Z,10.30
2022-08-22T20:19:13.482Z,10.15
2022-08-22T20:21:50.465Z,10.57
2022-08-22T20:24:23.091Z,10.65
2022-08-22T20:27:12.677Z,10.18
2022-08-22T20:32:14.975Z,9.65
2022-08-22T20:34:43.403Z,8.75
2022-08-22T20:37:32.324Z,10.38
2022-08-22T20:40:33.504Z,10.52
2022-08-22T20:43:13.266Z,9.68
2022-08-22T20:45:57.218Z,10.55
2022-08-22T20:48:34.402Z,11.32
2022-08-22T20:51:06.925Z,9.73
2022-08-22T20:53:36.851Z,10.85
2022-08-22T20:56:05.846Z,10.02
2022-08-22T20:58:37.711Z,10.45
2022-08-22T21:01:09.634Z,11.10
2022-08-22T21:03:42.456Z,12.13
2022-08-22T21:06:13.235Z,11.35
2022-08-22T21:08:43.814Z,10.38
2022-08-22T21:11:20.189Z,9.52
2022-08-22T21:13:48.192Z,9.75
2022-08-22T21:16:18.772Z,9.02
2022-08-22T21:18:48.172Z,9.38
2022-08-22T21:21:20.402Z,9.48
2022-08-22T21:23:51.883Z,10.07
2022-08-22T21:26:24.447Z,11.68
2022-08-22T21:28:58.818Z,10.63
2022-08-22T21:31:30.295Z,12.73
2022-08-22T21:33:58.534Z,10.25
2022-08-22T21:36:29.745Z,11.65
2022-08-22T21:39:01.368Z,9.60
2022-08-22T21:41:37.087Z,12.32
2022-08-22T21:44:19.468Z,10.52
2022-08-22T21:46:47.243Z,10.25
2022-08-22T21:49:23.425Z,10.48
2022-08-22T21:51:51.905Z,14.23
2022-08-22T21:54:28.980Z,12.18
2022-08-22T21:57:00.301Z,11.45
2022-08-22T21:59:52.089Z,10.02
2022-08-22T22:02:36.433Z,9.88
2022-08-22T22:05:09.346Z,11.20
2022-08-22T22:07:38.944Z,10.20
2022-08-22T22:10:11.680Z,11.65
2022-08-22T22:12:40.770Z,10.93
2022-08-22T22:15:12.838Z,12.52
2022-08-22T22:17:41.259Z,11.35
2022-08-22T22:20:10.451Z,11.95
2022-08-22T22:22:46.631Z,13.13
2022-08-22T22:25:40.536Z,12.23
2022-08-22T22:28:09.532Z,11.20
2022-08-22T22:30:37.696Z,10.25
2022-08-22T22:33:05.461Z,11.40
2022-08-22T22:35:34.103Z,11.98
2022-08-22T22:38:02.061Z,12.20
2022-08-22T22:40:31.679Z,12.25
2022-08-22T22:42:59.380Z,11.02
2022-08-22T22:45:27.004Z,11.75
2022-08-22T22:47:54.620Z,12.75
2022-08-22T22:50:22.495Z,13.80
2022-08-22T22:52:50.411Z,12.30
2022-08-22T22:55:24.374Z,14.95
2022-08-22T22:57:59.154Z,13.55
2022-08-22T23:00:29.168Z,12.18
2022-08-22T23:03:00.369Z,12.35
2022-08-22T23:05:28.988Z,12.50
2022-08-22T23:07:57.200Z,13.32
2022-08-22T23:10:25.541Z,13.02
2022-08-22T23:12:54.791Z,14.82
2022-08-22T23:15:22.664Z,14.38
2022-08-22T23:17:50.547Z,12.63
2022-08-22T23:20:18.613Z,15.50
2022-08-22T23:22:46.936Z,13.50
2022-08-22T23:25:15.361Z,14.88
2022-08-22T23:27:43.717Z,13.02
2022-08-22T23:30:13.576Z,12.55
2022-08-22T23:32:41.467Z,13.60
2022-08-22T23:35:09.845Z,15.55
2022-08-22T23:37:37.442Z,14.52
2022-08-22T23:40:06.773Z,13.20
2022-08-22T23:42:35.094Z,12.95
2022-08-22T23:45:02.843Z,14.35
2022-08-22T23:47:32.266Z,12.98
2022-08-22T23:50:06.123Z,12.30
2022-08-22T23:52:34.351Z,12.95
2022-08-22T23:55:02.248Z,11.50
2022-08-22T23:57:30.073Z,11.65
2022-08-22T23:59:58.499Z,13.43
